History Data

Date (GMT-7:00) CPM ACPM uSv/h Latitude Longitude Altitude CO CO2 TVOC HCHO Air Pressure Temperature Humidity Type
2025-10-13 15:08:12 22 19.60 0.110000 41.649648 41.62752893 0 0 0 0 0 0 0 0 STD5.60
2025-10-13 15:03:09 27 17.90 0.135000 41.649648 41.62752893 0 0 0 0 0 0 0 0 STD5.60
2025-10-13 14:58:07 21 17.00 0.105000 41.649648 41.62752893 0 0 0 0 0 0 0 0 STD5.60
2025-10-13 14:53:05 14 17.30 0.070000 41.649648 41.62752893 0 0 0 0 0 0 0 0 STD5.60
2025-10-13 14:48:04 12 17.60 0.060000 41.649648 41.62752893 0 0 0 0 0 0 0 0 STD5.60
2025-10-13 14:43:01 13 18.20 0.065000 41.649648 41.62752893 0 0 0 0 0 0 0 0 STD5.60
2025-10-13 14:37:58 17 17.30 0.085000 41.649648 41.62752893 0 0 0 0 0 0 0 0 STD5.60
2025-10-13 14:32:56 19 17.20 0.095000 41.649648 41.62752893 0 0 0 0 0 0 0 0 STD5.60
2025-10-13 14:27:54 19 18.20 0.095000 41.649648 41.62752893 0 0 0 0 0 0 0 0 STD5.60
2025-10-13 14:22:50 14 17.40 0.070000 41.649648 41.62752893 0 0 0 0 0 0 0 0 STD5.60
2025-10-13 14:17:47 20 18.10 0.100000 41.649648 41.62752893 0 0 0 0 0 0 0 0 STD5.60
2025-10-13 14:12:45 20 17.90 0.100000 41.649648 41.62752893 0 0 0 0 0 0 0 0 STD5.60
2025-10-13 14:07:44 21 17.30 0.105000 41.649648 41.62752893 0 0 0 0 0 0 0 0 STD5.60
2025-10-13 14:02:44 15 17.40 0.075000 41.649648 41.62752893 0 0 0 0 0 0 0 0 STD5.60
2025-10-13 13:57:40 15 18.50 0.075000 41.649648 41.62752893 0 0 0 0 0 0 0 0 STD5.60
2025-10-13 13:52:39 22 17.60 0.110000 41.649648 41.62752893 0 0 0 0 0 0 0 0 STD5.60
2025-10-13 13:47:36 20 16.40 0.100000 41.649648 41.62752893 0 0 0 0 0 0 0 0 STD5.60
2025-10-13 13:42:33 20 16.60 0.100000 41.649648 41.62752893 0 0 0 0 0 0 0 0 STD5.60
2025-10-13 13:37:32 15 17.90 0.075000 41.649648 41.62752893 0 0 0 0 0 0 0 0 STD5.60
2025-10-13 13:32:29 12 12.40 0.060000 41.649648 41.62752893 0 0 0 0 0 0 0 0 STD5.60
2025-10-13 13:27:27 15 2.30 0.075000 41.649648 41.62752893 0 0 0 0 0 0 0 0 STD5.60
2025-10-13 13:22:23 19 18.20 0.095000 41.649648 41.62752893 0 0 0 0 0 0 0 0 STD5.60
2025-10-13 13:17:21 16 17.90 0.080000 41.649648 41.62752893 0 0 0 0 0 0 0 0 STD5.60
2025-10-13 13:12:18 22 18.00 0.110000 41.649648 41.62752893 0 0 0 0 0 0 0 0 STD5.60
2025-10-13 13:07:16 21 17.40 0.105000 41.649648 41.62752893 0 0 0 0 0 0 0 0 STD5.60
2025-10-13 13:02:14 13 16.30 0.065000 41.649648 41.62752893 0 0 0 0 0 0 0 0 STD5.60
2025-10-13 12:57:12 20 18.00 0.100000 41.649648 41.62752893 0 0 0 0 0 0 0 0 STD5.60
2025-10-13 12:52:10 22 18.20 0.110000 41.649648 41.62752893 0 0 0 0 0 0 0 0 STD5.60
2025-10-13 12:47:07 10 17.50 0.050000 41.649648 41.62752893 0 0 0 0 0 0 0 0 STD5.60
2025-10-13 12:42:05 12 15.90 0.060000 41.649648 41.62752893 0 0 0 0 0 0 0 0 STD5.60
2025-10-13 12:37:03 22 16.70 0.110000 41.649648 41.62752893 0 0 0 0 0 0 0 0 STD5.60
2025-10-13 12:32:02 15 19.70 0.075000 41.649648 41.62752893 0 0 0 0 0 0 0 0 STD5.60
2025-10-13 12:26:59 21 19.10 0.105000 41.649648 41.62752893 0 0 0 0 0 0 0 0 STD5.60
2025-10-13 12:21:54 17 16.50 0.085000 41.649648 41.62752893 0 0 0 0 0 0 0 0 STD5.60
2025-10-13 12:16:53 22 16.80 0.110000 41.649648 41.62752893 0 0 0 0 0 0 0 0 STD5.60
2025-10-13 12:11:50 23 16.30 0.115000 41.649648 41.62752893 0 0 0 0 0 0 0 0 STD5.60
2025-10-13 12:06:48 14 15.60 0.070000 41.649648 41.62752893 0 0 0 0 0 0 0 0 STD5.60
2025-10-13 12:01:47 15 17.60 0.075000 41.649648 41.62752893 0 0 0 0 0 0 0 0 STD5.60
2025-10-13 11:56:44 20 17.30 0.100000 41.649648 41.62752893 0 0 0 0 0 0 0 0 STD5.60
2025-10-13 11:51:43 17 15.50 0.085000 41.649648 41.62752893 0 0 0 0 0 0 0 0 STD5.60
2025-10-13 11:46:40 8 17.50 0.040000 41.649648 41.62752893 0 0 0 0 0 0 0 0 STD5.60
2025-10-13 11:41:38 15 18.10 0.075000 41.649648 41.62752893 0 0 0 0 0 0 0 0 STD5.60
2025-10-13 11:36:36 19 17.80 0.095000 41.649648 41.62752893 0 0 0 0 0 0 0 0 STD5.60
2025-10-13 11:31:34 13 18.10 0.065000 41.649648 41.62752893 0 0 0 0 0 0 0 0 STD5.60
2025-10-13 11:26:31 9 16.70 0.045000 41.649648 41.62752893 0 0 0 0 0 0 0 0 STD5.60
2025-10-13 11:21:27 16 17.00 0.080000 41.649648 41.62752893 0 0 0 0 0 0 0 0 STD5.60
2025-10-13 11:16:25 14 17.50 0.070000 41.649648 41.62752893 0 0 0 0 0 0 0 0 STD5.60
2025-10-13 11:11:23 20 18.40 0.100000 41.649648 41.62752893 0 0 0 0 0 0 0 0 STD5.60
2025-10-13 11:06:21 22 19.20 0.110000 41.649648 41.62752893 0 0 0 0 0 0 0 0 STD5.60
2025-10-13 11:01:19 17 18.70 0.085000 41.649648 41.62752893 0 0 0 0 0 0 0 0 STD5.60
2025-10-13 10:56:17 19 17.00 0.095000 41.649648 41.62752893 0 0 0 0 0 0 0 0 STD5.60
2025-10-13 10:51:16 7 15.80 0.035000 41.649648 41.62752893 0 0 0 0 0 0 0 0 STD5.60
2025-10-13 10:46:13 14 15.70 0.070000 41.649648 41.62752893 0 0 0 0 0 0 0 0 STD5.60
2025-10-13 10:41:11 12 17.00 0.060000 41.649648 41.62752893 0 0 0 0 0 0 0 0 STD5.60
2025-10-13 10:36:09 18 18.20 0.090000 41.649648 41.62752893 0 0 0 0 0 0 0 0 STD5.60
2025-10-13 10:31:14 18 17.40 0.090000 41.649648 41.62752893 0 0 0 0 0 0 0 0 STD5.60
2025-10-13 10:26:05 24 15.50 0.120000 41.649648 41.62752893 0 0 0 0 0 0 0 0 STD5.60
2025-10-13 10:21:02 12 16.50 0.060000 41.649648 41.62752893 0 0 0 0 0 0 0 0 STD5.60
2025-10-13 10:16:00 24 17.50 0.120000 41.649648 41.62752893 0 0 0 0 0 0 0 0 STD5.60
2025-10-13 10:10:57 23 16.20 0.115000 41.649648 41.62752893 0 0 0 0 0 0 0 0 STD5.60
2025-10-13 10:05:55 15 19.50 0.075000 41.649648 41.62752893 0 0 0 0 0 0 0 0 STD5.60
2025-10-13 10:00:53 18 20.90 0.090000 41.649648 41.62752893 0 0 0 0 0 0 0 0 STD5.60
2025-10-13 09:55:51 23 18.50 0.115000 41.649648 41.62752893 0 0 0 0 0 0 0 0 STD5.60
2025-10-13 09:50:49 22 19.10 0.110000 41.649648 41.62752893 0 0 0 0 0 0 0 0 STD5.60
2025-10-13 09:45:47 22 20.40 0.110000 41.649648 41.62752893 0 0 0 0 0 0 0 0 STD5.60
2025-10-13 09:40:44 30 20.90 0.150000 41.649648 41.62752893 0 0 0 0 0 0 0 0 STD5.60
2025-10-13 09:35:42 20 17.90 0.100000 41.649648 41.62752893 0 0 0 0 0 0 0 0 STD5.60
2025-10-13 09:30:41 15 17.10 0.075000 41.649648 41.62752893 0 0 0 0 0 0 0 0 STD5.60
2025-10-13 09:25:38 14 17.10 0.070000 41.649648 41.62752893 0 0 0 0 0 0 0 0 STD5.60
2025-10-13 09:20:20 16 16.10 0.080000 41.649648 41.62752893 0 0 0 0 0 0 0 0 STD5.60
2025-10-13 09:15:18 15 17.10 0.075000 41.649648 41.62752893 0 0 0 0 0 0 0 0 STD5.60
2025-10-13 09:10:16 20 17.20 0.100000 41.649648 41.62752893 0 0 0 0 0 0 0 0 STD5.60
2025-10-13 09:05:14 14 17.90 0.070000 41.649648 41.62752893 0 0 0 0 0 0 0 0 STD5.60
2025-10-13 09:00:13 20 20.70 0.100000 41.649648 41.62752893 0 0 0 0 0 0 0 0 STD5.60
2025-10-13 08:55:10 25 20.90 0.125000 41.649648 41.62752893 0 0 0 0 0 0 0 0 STD5.60
2025-10-13 08:50:08 30 19.10 0.150000 41.649648 41.62752893 0 0 0 0 0 0 0 0 STD5.60
2025-10-13 08:45:06 22 19.20 0.110000 41.649648 41.62752893 0 0 0 0 0 0 0 0 STD5.60
2025-10-13 08:40:04 19 18.90 0.095000 41.649648 41.62752893 0 0 0 0 0 0 0 0 STD5.60
2025-10-13 08:35:01 21 19.50 0.105000 41.649648 41.62752893 0 0 0 0 0 0 0 0 STD5.60
2025-10-13 08:30:00 17 18.70 0.085000 41.649648 41.62752893 0 0 0 0 0 0 0 0 STD5.60
2025-10-13 08:24:58 16 15.40 0.080000 41.649648 41.62752893 0 0 0 0 0 0 0 0 STD5.60
2025-10-13 08:19:53 14 16.60 0.070000 41.649648 41.62752893 0 0 0 0 0 0 0 0 STD5.60
2025-10-13 08:14:51 13 20.10 0.065000 41.649648 41.62752893 0 0 0 0 0 0 0 0 STD5.60
2025-10-13 08:09:49 12 18.20 0.060000 41.649648 41.62752893 0 0 0 0 0 0 0 0 STD5.60
2025-10-13 08:04:47 15 16.60 0.075000 41.649648 41.62752893 0 0 0 0 0 0 0 0 STD5.60
2025-10-13 07:59:46 15 19.00 0.075000 41.649648 41.62752893 0 0 0 0 0 0 0 0 STD5.60
2025-10-13 07:54:43 17 19.30 0.085000 41.649648 41.62752893 0 0 0 0 0 0 0 0 STD5.60
2025-10-13 07:49:41 21 17.90 0.105000 41.649648 41.62752893 0 0 0 0 0 0 0 0 STD5.60
2025-10-13 07:44:39 24 18.00 0.120000 41.649648 41.62752893 0 0 0 0 0 0 0 0 STD5.60
2025-10-13 07:39:37 13 19.80 0.065000 41.649648 41.62752893 0 0 0 0 0 0 0 0 STD5.60
2025-10-13 07:34:35 18 21.50 0.090000 41.649648 41.62752893 0 0 0 0 0 0 0 0 STD5.60
2025-10-13 07:29:33 24 20.50 0.120000 41.649648 41.62752893 0 0 0 0 0 0 0 0 STD5.60
2025-10-13 07:24:30 24 20.70 0.120000 41.649648 41.62752893 0 0 0 0 0 0 0 0 STD5.60
2025-10-13 07:19:27 20 20.00 0.100000 41.649648 41.62752893 0 0 0 0 0 0 0 0 STD5.60
2025-10-13 07:14:24 15 16.90 0.075000 41.649648 41.62752893 0 0 0 0 0 0 0 0 STD5.60
2025-10-13 07:09:22 14 16.10 0.070000 41.649648 41.62752893 0 0 0 0 0 0 0 0 STD5.60
2025-10-13 07:04:20 17 18.50 0.085000 41.649648 41.62752893 0 0 0 0 0 0 0 0 STD5.60
2025-10-13 06:59:18 20 18.40 0.100000 41.649648 41.62752893 0 0 0 0 0 0 0 0 STD5.60
2025-10-13 06:54:16 12 16.30 0.060000 41.649648 41.62752893 0 0 0 0 0 0 0 0 STD5.60
2025-10-13 06:49:13 17 16.20 0.085000 41.649648 41.62752893 0 0 0 0 0 0 0 0 STD5.60
2025-10-13 06:44:11 14 19.00 0.070000 41.649648 41.62752893 0 0 0 0 0 0 0 0 STD5.60
2025-10-13 06:39:09 19 19.90 0.095000 41.649648 41.62752893 0 0 0 0 0 0 0 0 STD5.60
2025-10-13 06:34:07 19 19.00 0.095000 41.649648 41.62752893 0 0 0 0 0 0 0 0 STD5.60
2025-10-13 06:29:05 22 19.30 0.110000 41.649648 41.62752893 0 0 0 0 0 0 0 0 STD5.60
2025-10-13 06:24:03 23 17.70 0.115000 41.649648 41.62752893 0 0 0 0 0 0 0 0 STD5.60
2025-10-13 06:18:58 18 17.00 0.090000 41.649648 41.62752893 0 0 0 0 0 0 0 0 STD5.60
2025-10-13 06:13:56 18 17.30 0.090000 41.649648 41.62752893 0 0 0 0 0 0 0 0 STD5.60
2025-10-13 06:08:54 17 18.70 0.085000 41.649648 41.62752893 0 0 0 0 0 0 0 0 STD5.60
2025-10-13 06:03:52 27 17.70 0.135000 41.649648 41.62752893 0 0 0 0 0 0 0 0 STD5.60
2025-10-13 05:58:50 10 16.70 0.050000 41.649648 41.62752893 0 0 0 0 0 0 0 0 STD5.60
2025-10-13 05:53:47 17 17.90 0.085000 41.649648 41.62752893 0 0 0 0 0 0 0 0 STD5.60
2025-10-13 05:48:45 17 17.70 0.085000 41.649648 41.62752893 0 0 0 0 0 0 0 0 STD5.60
2025-10-13 05:43:43 20 18.20 0.100000 41.649648 41.62752893 0 0 0 0 0 0 0 0 STD5.60
2025-10-13 05:38:40 19 17.60 0.095000 41.649648 41.62752893 0 0 0 0 0 0 0 0 STD5.60
2025-10-13 05:33:38 16 16.60 0.080000 41.649648 41.62752893 0 0 0 0 0 0 0 0 STD5.60
2025-10-13 05:28:37 13 16.00 0.065000 41.649648 41.62752893 0 0 0 0 0 0 0 0 STD5.60
2025-10-13 05:23:35 16 16.00 0.080000 41.649648 41.62752893 0 0 0 0 0 0 0 0 STD5.60
2025-10-13 05:18:31 16 16.80 0.080000 41.649648 41.62752893 0 0 0 0 0 0 0 0 STD5.60
2025-10-13 05:13:28 18 17.50 0.090000 41.649648 41.62752893 0 0 0 0 0 0 0 0 STD5.60
2025-10-13 05:08:26 17 17.40 0.085000 41.649648 41.62752893 0 0 0 0 0 0 0 0 STD5.60
2025-10-13 05:03:24 21 19.00 0.105000 41.649648 41.62752893 0 0 0 0 0 0 0 0 STD5.60
2025-10-13 04:58:22 22 20.00 0.110000 41.649648 41.62752893 0 0 0 0 0 0 0 0 STD5.60
2025-10-13 04:53:20 20 19.70 0.100000 41.649648 41.62752893 0 0 0 0 0 0 0 0 STD5.60
2025-10-13 04:48:18 13 18.60 0.065000 41.649648 41.62752893 0 0 0 0 0 0 0 0 STD5.60
2025-10-13 04:43:16 17 18.90 0.085000 41.649648 41.62752893 0 0 0 0 0 0 0 0 STD5.60
2025-10-13 04:38:13 23 20.60 0.115000 41.649648 41.62752893 0 0 0 0 0 0 0 0 STD5.60
2025-10-13 04:33:11 20 19.40 0.100000 41.649648 41.62752893 0 0 0 0 0 0 0 0 STD5.60
2025-10-13 04:28:10 16 15.20 0.080000 41.649648 41.62752893 0 0 0 0 0 0 0 0 STD5.60
2025-10-13 04:23:07 8 15.30 0.040000 41.649648 41.62752893 0 0 0 0 0 0 0 0 STD5.60
2025-10-13 04:18:04 26 17.40 0.130000 41.649648 41.62752893 0 0 0 0 0 0 0 0 STD5.60
2025-10-13 04:13:00 16 17.00 0.080000 41.649648 41.62752893 0 0 0 0 0 0 0 0 STD5.60
2025-10-13 04:07:58 13 18.10 0.065000 41.649648 41.62752893 0 0 0 0 0 0 0 0 STD5.60
2025-10-13 04:02:56 20 18.00 0.100000 41.649648 41.62752893 0 0 0 0 0 0 0 0 STD5.60
2025-10-13 03:57:54 20 16.20 0.100000 41.649648 41.62752893 0 0 0 0 0 0 0 0 STD5.60
2025-10-13 03:52:51 22 17.10 0.110000 41.649648 41.62752893 0 0 0 0 0 0 0 0 STD5.60
2025-10-13 03:47:49 23 18.00 0.115000 41.649648 41.62752893 0 0 0 0 0 0 0 0 STD5.60
2025-10-13 03:42:47 18 17.50 0.090000 41.649648 41.62752893 0 0 0 0 0 0 0 0 STD5.60
2025-10-13 03:37:45 21 19.00 0.105000 41.649648 41.62752893 0 0 0 0 0 0 0 0 STD5.60
2025-10-13 03:32:42 18 19.80 0.090000 41.649648 41.62752893 0 0 0 0 0 0 0 0 STD5.60
2025-10-13 03:27:41 29 19.50 0.145000 41.649648 41.62752893 0 0 0 0 0 0 0 0 STD5.60
2025-10-13 03:22:37 21 18.50 0.105000 41.649648 41.62752893 0 0 0 0 0 0 0 0 STD5.60
2025-10-13 03:17:34 12 17.80 0.060000 41.649648 41.62752893 0 0 0 0 0 0 0 0 STD5.60
2025-10-13 03:12:33 16 17.60 0.080000 41.649648 41.62752893 0 0 0 0 0 0 0 0 STD5.60
2025-10-13 03:07:31 22 18.70 0.110000 41.649648 41.62752893 0 0 0 0 0 0 0 0 STD5.60
2025-10-13 03:02:28 23 17.50 0.115000 41.649648 41.62752893 0 0 0 0 0 0 0 0 STD5.60
2025-10-13 02:57:26 15 17.20 0.075000 41.649648 41.62752893 0 0 0 0 0 0 0 0 STD5.60
2025-10-13 02:52:24 18 18.10 0.090000 41.649648 41.62752893 0 0 0 0 0 0 0 0 STD5.60
2025-10-13 02:47:22 18 17.10 0.090000 41.649648 41.62752893 0 0 0 0 0 0 0 0 STD5.60
2025-10-13 02:42:20 13 17.00 0.065000 41.649648 41.62752893 0 0 0 0 0 0 0 0 STD5.60
2025-10-13 02:37:18 13 16.80 0.065000 41.649648 41.62752893 0 0 0 0 0 0 0 0 STD5.60
2025-10-13 02:32:15 16 18.80 0.080000 41.649648 41.62752893 0 0 0 0 0 0 0 0 STD5.60
2025-10-13 02:27:14 25 19.30 0.125000 41.649648 41.62752893 0 0 0 0 0 0 0 0 STD5.60
2025-10-13 02:22:09 15 18.60 0.075000 41.649648 41.62752893 0 0 0 0 0 0 0 0 STD5.60
2025-10-13 02:17:07 17 18.30 0.085000 41.649648 41.62752893 0 0 0 0 0 0 0 0 STD5.60
2025-10-13 02:12:06 15 16.90 0.075000 41.649648 41.62752893 0 0 0 0 0 0 0 0 STD5.60
2025-10-13 02:07:04 11 17.50 0.055000 41.649648 41.62752893 0 0 0 0 0 0 0 0 STD5.60
2025-10-13 02:02:01 24 17.70 0.120000 41.649648 41.62752893 0 0 0 0 0 0 0 0 STD5.60
2025-10-13 01:57:00 19 18.00 0.095000 41.649648 41.62752893 0 0 0 0 0 0 0 0 STD5.60
2025-10-13 01:51:57 22 17.70 0.110000 41.649648 41.62752893 0 0 0 0 0 0 0 0 STD5.60
2025-10-13 01:46:55 15 14.60 0.075000 41.649648 41.62752893 0 0 0 0 0 0 0 0 STD5.60
2025-10-13 01:41:53 12 16.30 0.060000 41.649648 41.62752893 0 0 0 0 0 0 0 0 STD5.60
2025-10-13 01:36:50 19 19.30 0.095000 41.649648 41.62752893 0 0 0 0 0 0 0 0 STD5.60
2025-10-13 01:31:48 20 18.10 0.100000 41.649648 41.62752893 0 0 0 0 0 0 0 0 STD5.60
2025-10-13 01:26:47 16 19.20 0.080000 41.649648 41.62752893 0 0 0 0 0 0 0 0 STD5.60
2025-10-13 01:21:42 27 20.80 0.135000 41.649648 41.62752893 0 0 0 0 0 0 0 0 STD5.60
2025-10-13 01:16:40 19 20.10 0.095000 41.649648 41.62752893 0 0 0 0 0 0 0 0 STD5.60
2025-10-13 01:11:38 14 17.70 0.070000 41.649648 41.62752893 0 0 0 0 0 0 0 0 STD5.60
2025-10-13 01:06:36 17 18.90 0.085000 41.649648 41.62752893 0 0 0 0 0 0 0 0 STD5.60
2025-10-13 01:01:34 24 20.50 0.120000 41.649648 41.62752893 0 0 0 0 0 0 0 0 STD5.60
2025-10-13 00:56:32 30 17.70 0.150000 41.649648 41.62752893 0 0 0 0 0 0 0 0 STD5.60
2025-10-13 00:51:29 14 17.50 0.070000 41.649648 41.62752893 0 0 0 0 0 0 0 0 STD5.60
2025-10-13 00:46:27 21 17.60 0.105000 41.649648 41.62752893 0 0 0 0 0 0 0 0 STD5.60
2025-10-13 00:41:25 15 17.20 0.075000 41.649648 41.62752893 0 0 0 0 0 0 0 0 STD5.60
2025-10-13 00:36:24 14 18.30 0.070000 41.649648 41.62752893 0 0 0 0 0 0 0 0 STD5.60
2025-10-13 00:31:22 25 17.80 0.125000 41.649648 41.62752893 0 0 0 0 0 0 0 0 STD5.60
2025-10-13 00:26:20 13 15.60 0.065000 41.649648 41.62752893 0 0 0 0 0 0 0 0 STD5.60
2025-10-13 00:21:15 9 16.10 0.045000 41.649648 41.62752893 0 0 0 0 0 0 0 0 STD5.60
2025-10-13 00:16:13 18 17.30 0.090000 41.649648 41.62752893 0 0 0 0 0 0 0 0 STD5.60
2025-10-13 00:11:11 16 18.60 0.080000 41.649648 41.62752893 0 0 0 0 0 0 0 0 STD5.60
2025-10-13 00:06:09 21 19.30 0.105000 41.649648 41.62752893 0 0 0 0 0 0 0 0 STD5.60
2025-10-13 00:01:07 23 18.60 0.115000 41.649648 41.62752893 0 0 0 0 0 0 0 0 STD5.60
2025-10-12 23:56:05 26 18.80 0.130000 41.649648 41.62752893 0 0 0 0 0 0 0 0 STD5.60
2025-10-12 23:51:03 19 16.20 0.095000 41.649648 41.62752893 0 0 0 0 0 0 0 0 STD5.60
2025-10-12 23:46:00 18 13.90 0.090000 41.649648 41.62752893 0 0 0 0 0 0 0 0 STD5.60
2025-10-12 23:40:58 22 15.50 0.110000 41.649648 41.62752893 0 0 0 0 0 0 0 0 STD5.60
2025-10-12 23:35:56 22 17.40 0.110000 41.649648 41.62752893 0 0 0 0 0 0 0 0 STD5.60
2025-10-12 23:30:54 11 20.30 0.055000 41.649648 41.62752893 0 0 0 0 0 0 0 0 STD5.60
2025-10-12 23:25:53 22 20.70 0.110000 41.649648 41.62752893 0 0 0 0 0 0 0 0 STD5.60
2025-10-12 23:20:48 18 18.80 0.090000 41.649648 41.62752893 0 0 0 0 0 0 0 0 STD5.60
2025-10-12 23:15:46 22 19.80 0.110000 41.649648 41.62752893 0 0 0 0 0 0 0 0 STD5.60
2025-10-12 23:10:44 19 20.30 0.095000 41.649648 41.62752893 0 0 0 0 0 0 0 0 STD5.60
2025-10-12 23:05:42 26 19.30 0.130000 41.649648 41.62752893 0 0 0 0 0 0 0 0 STD5.60
2025-10-12 23:00:40 23 17.60 0.115000 41.649648 41.62752893 0 0 0 0 0 0 0 0 STD5.60
2025-10-12 22:55:38 18 18.40 0.090000 41.649648 41.62752893 0 0 0 0 0 0 0 0 STD5.60
2025-10-12 22:50:36 15 18.90 0.075000 41.649648 41.62752893 0 0 0 0 0 0 0 0 STD5.60
2025-10-12 22:45:33 19 18.10 0.095000 41.649648 41.62752893 0 0 0 0 0 0 0 0 STD5.60
2025-10-12 22:40:31 20 20.60 0.100000 41.649648 41.62752893 0 0 0 0 0 0 0 0 STD5.60
2025-10-12 22:35:29 28 20.50 0.140000 41.649648 41.62752893 0 0 0 0 0 0 0 0 STD5.60
2025-10-12 22:30:27 15 17.60 0.075000 41.649648 41.62752893 0 0 0 0 0 0 0 0 STD5.60
2025-10-12 22:25:25 22 16.50 0.110000 41.649648 41.62752893 0 0 0 0 0 0 0 0 STD5.60
2025-10-12 22:20:21 16 18.80 0.080000 41.649648 41.62752893 0 0 0 0 0 0 0 0 STD5.60
2025-10-12 22:15:19 23 20.10 0.115000 41.649648 41.62752893 0 0 0 0 0 0 0 0 STD5.60
2025-10-12 22:10:17 20 17.80 0.100000 41.649648 41.62752893 0 0 0 0 0 0 0 0 STD5.60
2025-10-12 22:05:14 16 17.40 0.080000 41.649648 41.62752893 0 0 0 0 0 0 0 0 STD5.60
2025-10-12 22:00:12 21 18.10 0.105000 41.649648 41.62752893 0 0 0 0 0 0 0 0 STD5.60
2025-10-12 21:55:10 22 18.10 0.110000 41.649648 41.62752893 0 0 0 0 0 0 0 0 STD5.60
2025-10-12 21:50:09 21 17.20 0.105000 41.649648 41.62752893 0 0 0 0 0 0 0 0 STD5.60
2025-10-12 21:45:06 18 16.20 0.090000 41.649648 41.62752893 0 0 0 0 0 0 0 0 STD5.60
2025-10-12 21:40:05 14 15.70 0.070000 41.649648 41.62752893 0 0 0 0 0 0 0 0 STD5.60
2025-10-12 21:35:02 10 17.60 0.050000 41.649648 41.62752893 0 0 0 0 0 0 0 0 STD5.60
2025-10-12 21:29:59 19 19.30 0.095000 41.649648 41.62752893 0 0 0 0 0 0 0 0 STD5.60
2025-10-12 21:24:57 17 19.90 0.085000 41.649648 41.62752893 0 0 0 0 0 0 0 0 STD5.60
2025-10-12 21:19:42 19 19.70 0.095000 41.649648 41.62752893 0 0 0 0 0 0 0 0 STD5.60
2025-10-12 21:14:39 15 18.10 0.075000 41.649648 41.62752893 0 0 0 0 0 0 0 0 STD5.60
2025-10-12 21:09:37 24 17.30 0.120000 41.649648 41.62752893 0 0 0 0 0 0 0 0 STD5.60
2025-10-12 21:04:35 14 17.40 0.070000 41.649648 41.62752893 0 0 0 0 0 0 0 0 STD5.60
2025-10-12 20:59:33 17 17.30 0.085000 41.649648 41.62752893 0 0 0 0 0 0 0 0 STD5.60
2025-10-12 20:54:32 18 17.40 0.090000 41.649648 41.62752893 0 0 0 0 0 0 0 0 STD5.60
2025-10-12 20:49:29 22 19.80 0.110000 41.649648 41.62752893 0 0 0 0 0 0 0 0 STD5.60
2025-10-12 20:44:26 18 18.80 0.090000 41.649648 41.62752893 0 0 0 0 0 0 0 0 STD5.60
2025-10-12 20:39:24 17 16.20 0.085000 41.649648 41.62752893 0 0 0 0 0 0 0 0 STD5.60
2025-10-12 20:34:22 11 17.90 0.055000 41.649648 41.62752893 0 0 0 0 0 0 0 0 STD5.60
2025-10-12 20:29:20 22 19.10 0.110000 41.649648 41.62752893 0 0 0 0 0 0 0 0 STD5.60
2025-10-12 20:24:18 21 17.90 0.105000 41.649648 41.62752893 0 0 0 0 0 0 0 0 STD5.60
2025-10-12 20:19:13 14 19.10 0.070000 41.649648 41.62752893 0 0 0 0 0 0 0 0 STD5.60
2025-10-12 20:14:11 24 19.00 0.120000 41.649648 41.62752893 0 0 0 0 0 0 0 0 STD5.60
2025-10-12 20:09:09 14 16.60 0.070000 41.649648 41.62752893 0 0 0 0 0 0 0 0 STD5.60
2025-10-12 20:04:07 14 16.50 0.070000 41.649648 41.62752893 0 0 0 0 0 0 0 0 STD5.60
2025-10-12 19:59:04 23 16.20 0.115000 41.649648 41.62752893 0 0 0 0 0 0 0 0 STD5.60
2025-10-12 19:54:03 15 16.70 0.075000 41.649648 41.62752893 0 0 0 0 0 0 0 0 STD5.60
2025-10-12 19:49:00 17 18.60 0.085000 41.649648 41.62752893 0 0 0 0 0 0 0 0 STD5.60
2025-10-12 19:43:58 15 18.50 0.075000 41.649648 41.62752893 0 0 0 0 0 0 0 0 STD5.60
2025-10-12 19:38:56 18 18.70 0.090000 41.649648 41.62752893 0 0 0 0 0 0 0 0 STD5.60
2025-10-12 19:33:54 16 16.20 0.080000 41.649648 41.62752893 0 0 0 0 0 0 0 0 STD5.60
2025-10-12 19:28:52 13 14.80 0.065000 41.649648 41.62752893 0 0 0 0 0 0 0 0 STD5.60
2025-10-12 19:23:51 17 18.10 0.085000 41.649648 41.62752893 0 0 0 0 0 0 0 0 STD5.60
2025-10-12 19:18:46 18 19.80 0.090000 41.649648 41.62752893 0 0 0 0 0 0 0 0 STD5.60
2025-10-12 19:13:44 17 18.70 0.085000 41.649648 41.62752893 0 0 0 0 0 0 0 0 STD5.60
2025-10-12 19:08:42 21 17.20 0.105000 41.649648 41.62752893 0 0 0 0 0 0 0 0 STD5.60
2025-10-12 19:03:40 18 18.30 0.090000 41.649648 41.62752893 0 0 0 0 0 0 0 0 STD5.60
2025-10-12 18:58:38 21 18.30 0.105000 41.649648 41.62752893 0 0 0 0 0 0 0 0 STD5.60
2025-10-12 18:53:36 19 15.90 0.095000 41.649648 41.62752893 0 0 0 0 0 0 0 0 STD5.60
2025-10-12 18:48:34 12 16.10 0.060000 41.649648 41.62752893 0 0 0 0 0 0 0 0 STD5.60
2025-10-12 18:43:31 16 17.50 0.080000 41.649648 41.62752893 0 0 0 0 0 0 0 0 STD5.60
2025-10-12 18:38:29 21 17.40 0.105000 41.649648 41.62752893 0 0 0 0 0 0 0 0 STD5.60
2025-10-12 18:33:27 16 17.50 0.080000 41.649648 41.62752893 0 0 0 0 0 0 0 0 STD5.60
2025-10-12 18:28:24 20 16.90 0.100000 41.649648 41.62752893 0 0 0 0 0 0 0 0 STD5.60
2025-10-12 18:23:23 15 17.80 0.075000 41.649648 41.62752893 0 0 0 0 0 0 0 0 STD5.60
2025-10-12 18:18:18 21 18.40 0.105000 41.649648 41.62752893 0 0 0 0 0 0 0 0 STD5.60
2025-10-12 18:13:17 11 18.10 0.055000 41.649648 41.62752893 0 0 0 0 0 0 0 0 STD5.60
2025-10-12 18:08:14 21 20.30 0.105000 41.649648 41.62752893 0 0 0 0 0 0 0 0 STD5.60
2025-10-12 18:03:12 21 21.50 0.105000 41.649648 41.62752893 0 0 0 0 0 0 0 0 STD5.60
2025-10-12 17:58:10 24 18.60 0.120000 41.649648 41.62752893 0 0 0 0 0 0 0 0 STD5.60
2025-10-12 17:53:08 21 15.80 0.105000 41.649648 41.62752893 0 0 0 0 0 0 0 0 STD5.60
2025-10-12 17:48:06 18 16.30 0.090000 41.649648 41.62752893 0 0 0 0 0 0 0 0 STD5.60
2025-10-12 17:43:04 15 17.30 0.075000 41.649648 41.62752893 0 0 0 0 0 0 0 0 STD5.60
2025-10-12 17:38:02 15 20.20 0.075000 41.649648 41.62752893 0 0 0 0 0 0 0 0 STD5.60
2025-10-12 17:33:00 22 18.50 0.110000 41.649648 41.62752893 0 0 0 0 0 0 0 0 STD5.60
2025-10-12 17:27:57 7 16.10 0.035000 41.649648 41.62752893 0 0 0 0 0 0 0 0 STD5.60
2025-10-12 17:22:57 22 19.70 0.110000 41.649648 41.62752893 0 0 0 0 0 0 0 0 STD5.60
2025-10-12 17:17:51 26 19.90 0.130000 41.649648 41.62752893 0 0 0 0 0 0 0 0 STD5.60
2025-10-12 17:12:49 18 18.40 0.090000 41.649648 41.62752893 0 0 0 0 0 0 0 0 STD5.60
2025-10-12 17:07:46 20 17.60 0.100000 41.649648 41.62752893 0 0 0 0 0 0 0 0 STD5.60
2025-10-12 17:02:45 21 18.30 0.105000 41.649648 41.62752893 0 0 0 0 0 0 0 0 STD5.60
2025-10-12 16:57:43 25 20.10 0.125000 41.649648 41.62752893 0 0 0 0 0 0 0 0 STD5.60
2025-10-12 16:52:40 18 18.60 0.090000 41.649648 41.62752893 0 0 0 0 0 0 0 0 STD5.60
2025-10-12 16:47:38 19 17.80 0.095000 41.649648 41.62752893 0 0 0 0 0 0 0 0 STD5.60
2025-10-12 16:42:37 24 17.30 0.120000 41.649648 41.62752893 0 0 0 0 0 0 0 0 STD5.60
2025-10-12 16:37:34 13 17.90 0.065000 41.649648 41.62752893 0 0 0 0 0 0 0 0 STD5.60
2025-10-12 16:32:32 20 18.40 0.100000 41.649648 41.62752893 0 0 0 0 0 0 0 0 STD5.60
2025-10-12 16:27:30 7 18.10 0.035000 41.649648 41.62752893 0 0 0 0 0 0 0 0 STD5.60
2025-10-12 16:22:28 15 17.50 0.075000 41.649648 41.62752893 0 0 0 0 0 0 0 0 STD5.60
2025-10-12 16:17:23 20 16.20 0.100000 41.649648 41.62752893 0 0 0 0 0 0 0 0 STD5.60
2025-10-12 16:12:21 14 15.20 0.070000 41.649648 41.62752893 0 0 0 0 0 0 0 0 STD5.60
2025-10-12 16:07:19 18 17.30 0.090000 41.649648 41.62752893 0 0 0 0 0 0 0 0 STD5.60
2025-10-12 16:02:17 15 17.70 0.075000 41.649648 41.62752893 0 0 0 0 0 0 0 0 STD5.60
2025-10-12 15:57:15 13 16.50 0.065000 41.649648 41.62752893 0 0 0 0 0 0 0 0 STD5.60
2025-10-12 15:52:13 17 18.20 0.085000 41.649648 41.62752893 0 0 0 0 0 0 0 0 STD5.60
2025-10-12 15:47:11 23 18.90 0.115000 41.649648 41.62752893 0 0 0 0 0 0 0 0 STD5.60
2025-10-12 15:42:09 23 19.10 0.115000 41.649648 41.62752893 0 0 0 0 0 0 0 0 STD5.60
2025-10-12 15:37:07 22 17.60 0.110000 41.649648 41.62752893 0 0 0 0 0 0 0 0 STD5.60
2025-10-12 15:32:04 13 15.40 0.065000 41.649648 41.62752893 0 0 0 0 0 0 0 0 STD5.60
2025-10-12 15:27:03 19 15.50 0.095000 41.649648 41.62752893 0 0 0 0 0 0 0 0 STD5.60
2025-10-12 15:22:01 14 17.10 0.070000 41.649648 41.62752893 0 0 0 0 0 0 0 0 STD5.60
2025-10-12 15:16:56 13 17.60 0.065000 41.649648 41.62752893 0 0 0 0 0 0 0 0 STD5.60
2025-10-12 15:11:54 13 16.10 0.065000 41.649648 41.62752893 0 0 0 0 0 0 0 0 STD5.60
2025-10-12 15:06:52 21 15.90 0.105000 41.649648 41.62752893 0 0 0 0 0 0 0 0 STD5.60
2025-10-12 15:01:50 16 18.50 0.080000 41.649648 41.62752893 0 0 0 0 0 0 0 0 STD5.60
2025-10-12 14:56:47 29 18.40 0.145000 41.649648 41.62752893 0 0 0 0 0 0 0 0 STD5.60
2025-10-12 14:51:45 18 13.50 0.090000 41.649648 41.62752893 0 0 0 0 0 0 0 0 STD5.60
2025-10-12 14:46:43 13 13.10 0.065000 41.649648 41.62752893 0 0 0 0 0 0 0 0 STD5.60
2025-10-12 14:41:41 14 19.10 0.070000 41.649648 41.62752893 0 0 0 0 0 0 0 0 STD5.60
2025-10-12 14:36:39 31 19.20 0.155000 41.649648 41.62752893 0 0 0 0 0 0 0 0 STD5.60
2025-10-12 14:31:37 13 16.80 0.065000 41.649648 41.62752893 0 0 0 0 0 0 0 0 STD5.60
2025-10-12 14:26:35 20 16.90 0.100000 41.649648 41.62752893 0 0 0 0 0 0 0 0 STD5.60
2025-10-12 14:21:33 9 17.20 0.045000 41.649648 41.62752893 0 0 0 0 0 0 0 0 STD5.60
2025-10-12 14:16:29 22 17.60 0.110000 41.649648 41.62752893 0 0 0 0 0 0 0 0 STD5.60
2025-10-12 14:11:26 19 17.20 0.095000 41.649648 41.62752893 0 0 0 0 0 0 0 0 STD5.60
2025-10-12 14:06:24 19 19.20 0.095000 41.649648 41.62752893 0 0 0 0 0 0 0 0 STD5.60
2025-10-12 14:01:22 24 20.60 0.120000 41.649648 41.62752893 0 0 0 0 0 0 0 0 STD5.60
Geiger Counter World Map       A real time radiation map.     Copyright 2015 All rights reserved.